sensor_id;sensor_type;location;lat;lon;timestamp;pressure;altitude;pressure_sealevel;temperature;humidity
8101;BME280;4093;53.470;9.832;2024-03-02T00:01:43;100366.81;;;11.76;82.93
8101;BME280;4093;53.470;9.832;2024-03-02T00:04:11;100352.44;;;11.35;83.65
8101;BME280;4093;53.470;9.832;2024-03-02T00:06:39;100367.31;;;11.58;83.61
8101;BME280;4093;53.470;9.832;2024-03-02T00:09:09;100373.50;;;12.15;81.13
8101;BME280;4093;53.470;9.832;2024-03-02T00:11:38;100355.31;;;11.87;82.19
8101;BME280;4093;53.470;9.832;2024-03-02T00:14:07;100358.44;;;11.98;81.80
8101;BME280;4093;53.470;9.832;2024-03-02T00:16:35;100364.06;;;12.40;79.06
8101;BME280;4093;53.470;9.832;2024-03-02T00:19:05;100361.09;;;12.53;78.22
8101;BME280;4093;53.470;9.832;2024-03-02T00:21:33;100291.97;;;11.97;79.91
8101;BME280;4093;53.470;9.832;2024-03-02T00:24:01;100340.44;;;11.93;81.11
8101;BME280;4093;53.470;9.832;2024-03-02T00:26:34;100346.38;;;11.97;81.72
8101;BME280;4093;53.470;9.832;2024-03-02T00:29:02;100350.13;;;12.16;80.43
8101;BME280;4093;53.470;9.832;2024-03-02T00:31:30;100341.81;;;11.75;82.68
8101;BME280;4093;53.470;9.832;2024-03-02T00:34:02;100352.69;;;11.88;82.09
8101;BME280;4093;53.470;9.832;2024-03-02T00:36:34;100319.47;;;11.42;83.17
8101;BME280;4093;53.470;9.832;2024-03-02T00:39:03;100336.84;;;11.37;85.03
8101;BME280;4093;53.470;9.832;2024-03-02T00:41:34;100354.88;;;12.02;82.36
8101;BME280;4093;53.470;9.832;2024-03-02T00:44:04;100353.97;;;12.31;80.47
8101;BME280;4093;53.470;9.832;2024-03-02T00:46:34;100341.97;;;12.29;80.26
8101;BME280;4093;53.470;9.832;2024-03-02T00:49:02;100340.16;;;12.31;80.38
8101;BME280;4093;53.470;9.832;2024-03-02T00:51:32;100348.13;;;12.53;80.03
8101;BME280;4093;53.470;9.832;2024-03-02T00:54:03;100355.50;;;12.65;79.14
8101;BME280;4093;53.470;9.832;2024-03-02T00:56:32;100336.81;;;12.55;79.21
8101;BME280;4093;53.470;9.832;2024-03-02T00:59:01;100348.97;;;12.80;78.97
8101;BME280;4093;53.470;9.832;2024-03-02T01:01:28;100347.44;;;12.74;78.49
8101;BME280;4093;53.470;9.832;2024-03-02T01:03:56;100344.81;;;12.76;78.66
8101;BME280;4093;53.470;9.832;2024-03-02T01:06:24;100332.94;;;12.40;79.78
8101;BME280;4093;53.470;9.832;2024-03-02T01:08:52;100344.25;;;12.38;80.31
8101;BME280;4093;53.470;9.832;2024-03-02T01:11:21;100327.75;;;11.53;83.58
8101;BME280;4093;53.470;9.832;2024-03-02T01:13:50;100330.34;;;11.53;85.28
8101;BME280;4093;53.470;9.832;2024-03-02T01:16:18;100346.59;;;11.58;84.64
8101;BME280;4093;53.470;9.832;2024-03-02T01:18:46;100352.03;;;11.80;84.37
8101;BME280;4093;53.470;9.832;2024-03-02T01:21:14;100351.78;;;11.89;84.88
8101;BME280;4093;53.470;9.832;2024-03-02T01:23:42;100347.69;;;11.80;84.74
8101;BME280;4093;53.470;9.832;2024-03-02T01:26:10;100355.44;;;11.51;86.29
8101;BME280;4093;53.470;9.832;2024-03-02T01:28:39;100340.41;;;11.32;87.04
8101;BME280;4093;53.470;9.832;2024-03-02T01:31:07;100357.44;;;11.72;85.40
8101;BME280;4093;53.470;9.832;2024-03-02T01:33:34;100359.84;;;11.78;84.86
8101;BME280;4093;53.470;9.832;2024-03-02T01:36:03;100352.00;;;11.81;84.99
8101;BME280;4093;53.470;9.832;2024-03-02T01:38:31;100343.41;;;11.79;85.02
8101;BME280;4093;53.470;9.832;2024-03-02T01:40:57;100348.13;;;11.65;85.27
8101;BME280;4093;53.470;9.832;2024-03-02T01:43:25;100331.31;;;11.49;86.91
8101;BME280;4093;53.470;9.832;2024-03-02T01:45:55;100350.50;;;12.04;83.92
8101;BME280;4093;53.470;9.832;2024-03-02T01:48:24;100334.22;;;11.99;84.07
8101;BME280;4093;53.470;9.832;2024-03-02T01:50:51;100330.03;;;11.95;84.75
8101;BME280;4093;53.470;9.832;2024-03-02T01:53:19;100338.34;;;11.75;86.58
8101;BME280;4093;53.470;9.832;2024-03-02T01:55:47;100346.19;;;11.73;86.57
8101;BME280;4093;53.470;9.832;2024-03-02T01:58:15;100344.78;;;11.93;85.61
8101;BME280;4093;53.470;9.832;2024-03-02T02:00:42;100325.63;;;11.67;85.38
8101;BME280;4093;53.470;9.832;2024-03-02T02:03:12;100310.53;;;11.21;87.56
8101;BME280;4093;53.470;9.832;2024-03-02T02:05:42;100309.84;;;11.14;88.23
8101;BME280;4093;53.470;9.832;2024-03-02T02:08:10;100312.28;;;10.87;90.77
8101;BME280;4093;53.470;9.832;2024-03-02T02:10:37;100322.13;;;10.72;91.30
8101;BME280;4093;53.470;9.832;2024-03-02T02:13:05;100326.34;;;11.10;90.63
8101;BME280;4093;53.470;9.832;2024-03-02T02:15:34;100314.03;;;11.18;89.65
8101;BME280;4093;53.470;9.832;2024-03-02T02:18:03;100320.47;;;11.36;88.82
8101;BME280;4093;53.470;9.832;2024-03-02T02:20:33;100306.97;;;10.94;91.00
8101;BME280;4093;53.470;9.832;2024-03-02T02:23:03;100305.00;;;10.69;92.11
8101;BME280;4093;53.470;9.832;2024-03-02T02:25:32;100304.31;;;10.61;93.41
8101;BME280;4093;53.470;9.832;2024-03-02T02:28:00;100295.19;;;10.48;92.70
8101;BME280;4093;53.470;9.832;2024-03-02T02:30:30;100305.47;;;10.49;93.99
8101;BME280;4093;53.470;9.832;2024-03-02T02:32:58;100304.13;;;10.34;94.88
8101;BME280;4093;53.470;9.832;2024-03-02T02:35:26;100292.97;;;10.67;92.32
8101;BME280;4093;53.470;9.832;2024-03-02T02:37:57;100292.69;;;10.77;92.31
8101;BME280;4093;53.470;9.832;2024-03-02T02:40:26;100295.81;;;10.56;93.01
8101;BME280;4093;53.470;9.832;2024-03-02T02:42:55;100298.06;;;10.35;94.36
8101;BME280;4093;53.470;9.832;2024-03-02T02:45:23;100298.91;;;10.36;94.04
8101;BME280;4093;53.470;9.832;2024-03-02T02:47:51;100315.06;;;10.80;92.13
8101;BME280;4093;53.470;9.832;2024-03-02T02:50:19;100299.44;;;10.49;92.84
8101;BME280;4093;53.470;9.832;2024-03-02T02:52:46;100290.78;;;10.14;94.48
8101;BME280;4093;53.470;9.832;2024-03-02T02:55:14;100307.09;;;10.53;93.31
8101;BME280;4093;53.470;9.832;2024-03-02T02:57:44;100295.91;;;10.15;94.85
8101;BME280;4093;53.470;9.832;2024-03-02T03:00:14;100312.06;;;10.62;93.00
8101;BME280;4093;53.470;9.832;2024-03-02T03:02:46;100299.91;;;10.66;92.86
8101;BME280;4093;53.470;9.832;2024-03-02T03:05:16;100288.13;;;10.53;92.07
8101;BME280;4093;53.470;9.832;2024-03-02T03:07:43;100305.13;;;10.97;90.91
8101;BME280;4093;53.470;9.832;2024-03-02T03:10:12;100280.59;;;10.79;91.02
8101;BME280;4093;53.470;9.832;2024-03-02T03:12:41;100281.19;;;10.89;91.56
8101;BME280;4093;53.470;9.832;2024-03-02T03:15:12;100285.06;;;11.05;89.05
8101;BME280;4093;53.470;9.832;2024-03-02T03:17:40;100280.81;;;11.03;89.74
8101;BME280;4093;53.470;9.832;2024-03-02T03:20:09;100277.00;;;10.85;90.39
8101;BME280;4093;53.470;9.832;2024-03-02T03:22:37;100268.53;;;11.11;88.69
8101;BME280;4093;53.470;9.832;2024-03-02T03:25:05;100271.13;;;11.42;86.83
8101;BME280;4093;53.470;9.832;2024-03-02T03:27:34;100262.88;;;10.64;90.17
8101;BME280;4093;53.470;9.832;2024-03-02T03:30:03;100262.88;;;10.64;91.07
8101;BME280;4093;53.470;9.832;2024-03-02T03:32:33;100279.44;;;10.89;90.36
8101;BME280;4093;53.470;9.832;2024-03-02T03:35:01;100251.94;;;10.87;89.23
8101;BME280;4093;53.470;9.832;2024-03-02T03:37:29;100264.41;;;10.71;90.82
8101;BME280;4093;53.470;9.832;2024-03-02T03:40:00;100249.00;;;9.96;93.69
8101;BME280;4093;53.470;9.832;2024-03-02T03:42:29;100272.69;;;10.51;92.54
8101;BME280;4093;53.470;9.832;2024-03-02T03:44:56;100286.13;;;10.98;90.33
8101;BME280;4093;53.470;9.832;2024-03-02T03:47:24;100276.75;;;10.94;89.42
8101;BME280;4093;53.470;9.832;2024-03-02T03:49:53;100283.38;;;11.35;87.64
8101;BME280;4093;53.470;9.832;2024-03-02T03:52:21;100266.88;;;11.08;87.85
8101;BME280;4093;53.470;9.832;2024-03-02T03:54:48;100271.19;;;11.39;87.60
8101;BME280;4093;53.470;9.832;2024-03-02T03:57:17;100263.34;;;11.11;88.94
8101;BME280;4093;53.470;9.832;2024-03-02T03:59:44;100263.19;;;11.17;87.82
8101;BME280;4093;53.470;9.832;2024-03-02T04:02:12;100283.78;;;11.51;85.71
8101;BME280;4093;53.470;9.832;2024-03-02T04:04:40;100253.56;;;11.22;86.30
8101;BME280;4093;53.470;9.832;2024-03-02T04:07:10;100261.50;;;11.16;87.23
8101;BME280;4093;53.470;9.832;2024-03-02T04:09:37;100265.53;;;11.56;86.89
8101;BME280;4093;53.470;9.832;2024-03-02T04:12:05;100268.13;;;11.86;85.09
8101;BME280;4093;53.470;9.832;2024-03-02T04:14:33;100255.00;;;11.62;83.92
8101;BME280;4093;53.470;9.832;2024-03-02T04:17:01;100235.88;;;11.07;86.84
8101;BME280;4093;53.470;9.832;2024-03-02T04:19:28;100248.59;;;11.15;87.67
8101;BME280;4093;53.470;9.832;2024-03-02T04:21:56;100244.41;;;11.10;86.35
8101;BME280;4093;53.470;9.832;2024-03-02T04:24:28;100253.56;;;11.52;85.67
8101;BME280;4093;53.470;9.832;2024-03-02T04:26:56;100262.25;;;11.51;84.10
8101;BME280;4093;53.470;9.832;2024-03-02T04:29:24;100261.91;;;11.62;85.16
8101;BME280;4093;53.470;9.832;2024-03-02T04:31:52;100268.97;;;11.86;83.92
8101;BME280;4093;53.470;9.832;2024-03-02T04:34:19;100241.81;;;11.10;86.09
8101;BME280;4093;53.470;9.832;2024-03-02T04:36:47;100245.59;;;10.99;87.66
8101;BME280;4093;53.470;9.832;2024-03-02T04:39:15;100250.31;;;11.16;86.44
8101;BME280;4093;53.470;9.832;2024-03-02T04:41:44;100257.69;;;11.29;85.84
8101;BME280;4093;53.470;9.832;2024-03-02T04:44:12;100243.47;;;10.80;87.34
8101;BME280;4093;53.470;9.832;2024-03-02T04:46:40;100258.00;;;11.17;87.19
8101;BME280;4093;53.470;9.832;2024-03-02T04:49:07;100245.53;;;10.69;87.78
8101;BME280;4093;53.470;9.832;2024-03-02T04:51:35;100260.09;;;11.04;87.06
8101;BME280;4093;53.470;9.832;2024-03-02T04:54:03;100261.06;;;11.00;86.10
8101;BME280;4093;53.470;9.832;2024-03-02T04:56:31;100257.16;;;11.17;85.91
8101;BME280;4093;53.470;9.832;2024-03-02T04:59:12;100235.56;;;10.54;87.98
8101;BME280;4093;53.470;9.832;2024-03-02T05:01:40;100238.56;;;10.71;87.82
8101;BME280;4093;53.470;9.832;2024-03-02T05:04:07;100240.66;;;10.57;88.18
8101;BME280;4093;53.470;9.832;2024-03-02T05:06:38;100262.78;;;11.31;85.77
8101;BME280;4093;53.470;9.832;2024-03-02T05:09:07;100250.72;;;11.31;85.43
8101;BME280;4093;53.470;9.832;2024-03-02T05:11:34;100238.16;;;10.86;86.58
8101;BME280;4093;53.470;9.832;2024-03-02T05:14:21;100258.84;;;11.19;85.51
8101;BME280;4093;53.470;9.832;2024-03-02T05:16:48;100264.84;;;11.49;83.97
8101;BME280;4093;53.470;9.832;2024-03-02T05:19:16;100252.66;;;11.53;83.37
8101;BME280;4093;53.470;9.832;2024-03-02T05:21:44;100236.31;;;11.21;83.70
8101;BME280;4093;53.470;9.832;2024-03-02T05:24:11;100242.56;;;11.14;84.87
8101;BME280;4093;53.470;9.832;2024-03-02T05:26:39;100245.63;;;11.28;84.31
8101;BME280;4093;53.470;9.832;2024-03-02T05:29:07;100234.16;;;11.06;85.17
8101;BME280;4093;53.470;9.832;2024-03-02T05:31:36;100245.00;;;11.20;84.76
8101;BME280;4093;53.470;9.832;2024-03-02T05:34:03;100247.91;;;11.39;83.60
8101;BME280;4093;53.470;9.832;2024-03-02T05:36:32;100225.28;;;10.85;83.96
8101;BME280;4093;53.470;9.832;2024-03-02T05:38:59;100248.56;;;11.46;82.24
8101;BME280;4093;53.470;9.832;2024-03-02T05:41:27;100250.63;;;11.34;82.46
8101;BME280;4093;53.470;9.832;2024-03-02T05:43:55;100239.81;;;11.50;82.02
8101;BME280;4093;53.470;9.832;2024-03-02T05:46:23;100234.47;;;10.95;84.28
8101;BME280;4093;53.470;9.832;2024-03-02T05:48:52;100222.28;;;10.68;85.49
8101;BME280;4093;53.470;9.832;2024-03-02T05:51:19;100242.56;;;10.83;85.10
8101;BME280;4093;53.470;9.832;2024-03-02T05:53:47;100252.84;;;11.17;82.84
8101;BME280;4093;53.470;9.832;2024-03-02T05:56:15;100256.78;;;11.60;81.66
8101;BME280;4093;53.470;9.832;2024-03-02T05:58:43;100249.09;;;11.27;82.08
8101;BME280;4093;53.470;9.832;2024-03-02T06:01:24;100248.34;;;11.24;83.06
8101;BME280;4093;53.470;9.832;2024-03-02T06:03:56;100239.50;;;11.00;84.33
8101;BME280;4093;53.470;9.832;2024-03-02T06:06:25;100236.47;;;10.85;84.05
8101;BME280;4093;53.470;9.832;2024-03-02T06:08:53;100248.00;;;11.05;82.76
8101;BME280;4093;53.470;9.832;2024-03-02T06:11:21;100233.19;;;10.09;87.08
8101;BME280;4093;53.470;9.832;2024-03-02T06:13:48;100237.50;;;10.10;87.76
8101;BME280;4093;53.470;9.832;2024-03-02T06:16:16;100247.22;;;10.70;85.87
8101;BME280;4093;53.470;9.832;2024-03-02T06:18:44;100248.16;;;10.99;83.98
8101;BME280;4093;53.470;9.832;2024-03-02T06:21:13;100233.84;;;10.53;85.66
8101;BME280;4093;53.470;9.832;2024-03-02T06:23:41;100243.00;;;10.66;84.94
8101;BME280;4093;53.470;9.832;2024-03-02T06:26:09;100223.38;;;10.23;86.87
8101;BME280;4093;53.470;9.832;2024-03-02T06:28:36;100235.81;;;10.45;85.48
8101;BME280;4093;53.470;9.832;2024-03-02T06:31:04;100237.97;;;10.24;86.46
8101;BME280;4093;53.470;9.832;2024-03-02T06:33:32;100241.28;;;10.32;87.40
8101;BME280;4093;53.470;9.832;2024-03-02T06:36:00;100237.41;;;10.49;85.67
8101;BME280;4093;53.470;9.832;2024-03-02T06:38:29;100220.81;;;10.23;86.43
8101;BME280;4093;53.470;9.832;2024-03-02T06:40:58;100248.91;;;10.71;85.61
8101;BME280;4093;53.470;9.832;2024-03-02T06:43:26;100233.94;;;10.14;87.14
8101;BME280;4093;53.470;9.832;2024-03-02T06:45:54;100273.22;;;10.97;85.06
8101;BME280;4093;53.470;9.832;2024-03-02T06:48:22;100261.34;;;11.21;82.40
8101;BME280;4093;53.470;9.832;2024-03-02T06:50:51;100288.25;;;11.76;80.99
8101;BME280;4093;53.470;9.832;2024-03-02T06:53:19;100272.31;;;11.30;81.20
8101;BME280;4093;53.470;9.832;2024-03-02T06:55:49;100284.47;;;11.58;80.27
8101;BME280;4093;53.470;9.832;2024-03-02T06:58:16;100304.41;;;12.14;78.95
8101;BME280;4093;53.470;9.832;2024-03-02T07:00:44;100268.94;;;11.58;80.72
8101;BME280;4093;53.470;9.832;2024-03-02T07:03:12;100293.78;;;11.95;80.15
8101;BME280;4093;53.470;9.832;2024-03-02T07:05:40;100282.94;;;11.80;79.94
8101;BME280;4093;53.470;9.832;2024-03-02T07:08:07;100279.44;;;11.53;81.59
8101;BME280;4093;53.470;9.832;2024-03-02T07:10:35;100299.25;;;12.12;78.61
8101;BME280;4093;53.470;9.832;2024-03-02T07:13:04;100281.16;;;11.22;81.42
8101;BME280;4093;53.470;9.832;2024-03-02T07:15:32;100264.84;;;10.88;83.37
8101;BME280;4093;53.470;9.832;2024-03-02T07:18:32;100271.22;;;10.75;83.78
8101;BME280;4093;53.470;9.832;2024-03-02T07:21:01;100291.81;;;11.42;82.16
8101;BME280;4093;53.470;9.832;2024-03-02T07:23:29;100259.25;;;11.35;80.82
8101;BME280;4093;53.470;9.832;2024-03-02T07:25:58;100291.81;;;11.72;80.25
8101;BME280;4093;53.470;9.832;2024-03-02T07:28:31;100299.78;;;12.23;78.63
8101;BME280;4093;53.470;9.832;2024-03-02T07:31:00;100284.50;;;11.88;79.65
8101;BME280;4093;53.470;9.832;2024-03-02T07:33:28;100268.88;;;11.30;80.84
8101;BME280;4093;53.470;9.832;2024-03-02T07:35:56;100296.66;;;12.12;79.69
8101;BME280;4093;53.470;9.832;2024-03-02T07:38:24;100295.09;;;11.49;80.92
8101;BME280;4093;53.470;9.832;2024-03-02T07:40:52;100290.78;;;11.77;80.22
8101;BME280;4093;53.470;9.832;2024-03-02T07:43:20;100292.66;;;12.03;76.96
8101;BME280;4093;53.470;9.832;2024-03-02T07:45:49;100312.69;;;12.25;78.06
8101;BME280;4093;53.470;9.832;2024-03-02T07:48:17;100301.28;;;12.31;77.69
8101;BME280;4093;53.470;9.832;2024-03-02T07:50:45;100313.50;;;12.80;75.93
8101;BME280;4093;53.470;9.832;2024-03-02T07:53:13;100293.97;;;12.17;76.97
8101;BME280;4093;53.470;9.832;2024-03-02T07:55:40;100300.69;;;11.94;78.38
8101;BME280;4093;53.470;9.832;2024-03-02T07:58:08;100305.69;;;12.00;79.00
8101;BME280;4093;53.470;9.832;2024-03-02T08:00:38;100303.56;;;12.13;78.17
8101;BME280;4093;53.470;9.832;2024-03-02T08:03:07;100326.97;;;12.65;75.86
8101;BME280;4093;53.470;9.832;2024-03-02T08:05:37;100302.09;;;11.75;78.38
8101;BME280;4093;53.470;9.832;2024-03-02T08:08:06;100301.38;;;11.99;78.69
8101;BME280;4093;53.470;9.832;2024-03-02T08:10:33;100329.78;;;12.59;77.10
8101;BME280;4093;53.470;9.832;2024-03-02T08:13:01;100319.19;;;12.91;74.78
8101;BME280;4093;53.470;9.832;2024-03-02T08:15:29;100301.19;;;12.34;77.38
8101;BME280;4093;53.470;9.832;2024-03-02T08:17:57;100323.78;;;13.08;75.03
8101;BME280;4093;53.470;9.832;2024-03-02T08:20:26;100320.09;;;12.37;77.29
8101;BME280;4093;53.470;9.832;2024-03-02T08:22:54;100323.50;;;11.81;78.84
8101;BME280;4093;53.470;9.832;2024-03-02T08:25:22;100333.00;;;12.65;76.62
8101;BME280;4093;53.470;9.832;2024-03-02T08:27:50;100333.78;;;12.94;75.14
8101;BME280;4093;53.470;9.832;2024-03-02T08:30:18;100330.63;;;13.11;74.13
8101;BME280;4093;53.470;9.832;2024-03-02T08:32:45;100330.03;;;13.29;73.50
8101;BME280;4093;53.470;9.832;2024-03-02T08:35:14;100341.19;;;14.02;72.04
8101;BME280;4093;53.470;9.832;2024-03-02T08:37:43;100317.22;;;13.23;73.64
8101;BME280;4093;53.470;9.832;2024-03-02T08:40:11;100316.53;;;13.18;73.44
8101;BME280;4093;53.470;9.832;2024-03-02T08:42:43;100321.94;;;13.37;73.00
8101;BME280;4093;53.470;9.832;2024-03-02T08:45:12;100340.81;;;13.65;73.48
8101;BME280;4093;53.470;9.832;2024-03-02T08:47:40;100325.97;;;13.20;74.54
8101;BME280;4093;53.470;9.832;2024-03-02T08:50:08;100336.50;;;14.33;70.43
8101;BME280;4093;53.470;9.832;2024-03-02T08:52:36;100309.38;;;13.73;71.42
8101;BME280;4093;53.470;9.832;2024-03-02T08:55:06;100316.09;;;13.05;74.51
8101;BME280;4093;53.470;9.832;2024-03-02T08:57:34;100321.56;;;13.48;72.77
8101;BME280;4093;53.470;9.832;2024-03-02T09:00:02;100333.41;;;13.78;72.51
8101;BME280;4093;53.470;9.832;2024-03-02T09:02:31;100348.31;;;14.85;68.84
8101;BME280;4093;53.470;9.832;2024-03-02T09:04:59;100319.81;;;14.39;69.29
8101;BME280;4093;53.470;9.832;2024-03-02T09:07:27;100305.47;;;13.61;71.93
8101;BME280;4093;53.470;9.832;2024-03-02T09:09:55;100344.63;;;14.70;69.64
8101;BME280;4093;53.470;9.832;2024-03-02T09:12:24;100336.06;;;14.44;69.55
8101;BME280;4093;53.470;9.832;2024-03-02T09:14:52;100348.06;;;14.91;68.93
8101;BME280;4093;53.470;9.832;2024-03-02T09:17:19;100331.66;;;14.68;69.26
8101;BME280;4093;53.470;9.832;2024-03-02T09:19:47;100318.19;;;13.91;69.77
8101;BME280;4093;53.470;9.832;2024-03-02T09:22:15;100327.75;;;13.91;72.04
8101;BME280;4093;53.470;9.832;2024-03-02T09:24:42;100297.13;;;13.75;70.73
8101;BME280;4093;53.470;9.832;2024-03-02T09:27:10;100307.81;;;13.91;70.76
8101;BME280;4093;53.470;9.832;2024-03-02T09:29:39;100313.31;;;13.60;71.44
8101;BME280;4093;53.470;9.832;2024-03-02T09:32:08;100327.06;;;14.09;69.56
8101;BME280;4093;53.470;9.832;2024-03-02T09:34:39;100330.50;;;14.31;69.44
8101;BME280;4093;53.470;9.832;2024-03-02T09:37:07;100345.66;;;14.86;68.05
8101;BME280;4093;53.470;9.832;2024-03-02T09:39:35;100319.34;;;14.72;68.63
8101;BME280;4093;53.470;9.832;2024-03-02T09:42:04;100335.75;;;14.74;68.11
8101;BME280;4093;53.470;9.832;2024-03-02T09:44:33;100332.13;;;14.78;68.55
8101;BME280;4093;53.470;9.832;2024-03-02T09:47:02;100344.19;;;15.61;66.61
8101;BME280;4093;53.470;9.832;2024-03-02T09:49:29;100310.25;;;14.82;67.71
8101;BME280;4093;53.470;9.832;2024-03-02T09:51:57;100328.47;;;15.02;67.40
8101;BME280;4093;53.470;9.832;2024-03-02T09:54:25;100331.22;;;15.20;67.11
8101;BME280;4093;53.470;9.832;2024-03-02T09:56:53;100316.91;;;14.89;67.25
8101;BME280;4093;53.470;9.832;2024-03-02T09:59:20;100330.34;;;15.40;66.36
8101;BME280;4093;53.470;9.832;2024-03-02T10:01:58;100324.88;;;15.65;64.88
8101;BME280;4093;53.470;9.832;2024-03-02T10:04:29;100321.25;;;15.69;65.57
8101;BME280;4093;53.470;9.832;2024-03-02T10:07:11;100316.00;;;15.11;65.66
8101;BME280;4093;53.470;9.832;2024-03-02T10:09:39;100324.19;;;15.01;66.26
8101;BME280;4093;53.470;9.832;2024-03-02T10:12:08;100325.84;;;15.43;65.13
8101;BME280;4093;53.470;9.832;2024-03-02T10:14:37;100332.59;;;15.68;65.08
8101;BME280;4093;53.470;9.832;2024-03-02T10:17:07;100332.47;;;16.26;63.78
8101;BME280;4093;53.470;9.832;2024-03-02T10:19:38;100321.44;;;15.64;64.57
8101;BME280;4093;53.470;9.832;2024-03-02T10:22:07;100321.75;;;15.57;63.97
8101;BME280;4093;53.470;9.832;2024-03-02T10:24:36;100327.25;;;15.71;64.96
8101;BME280;4093;53.470;9.832;2024-03-02T10:27:07;100328.31;;;15.26;65.71
8101;BME280;4093;53.470;9.832;2024-03-02T10:29:39;100338.94;;;16.00;64.12
8101;BME280;4093;53.470;9.832;2024-03-02T10:32:11;100333.06;;;15.76;64.37
8101;BME280;4093;53.470;9.832;2024-03-02T10:34:41;100341.09;;;15.32;65.68
8101;BME280;4093;53.470;9.832;2024-03-02T10:37:10;100343.81;;;15.89;64.32
8101;BME280;4093;53.470;9.832;2024-03-02T10:39:39;100325.66;;;15.27;64.21
8101;BME280;4093;53.470;9.832;2024-03-02T10:42:08;100337.97;;;15.84;63.94
8101;BME280;4093;53.470;9.832;2024-03-02T10:44:36;100338.59;;;16.08;63.02
8101;BME280;4093;53.470;9.832;2024-03-02T10:47:05;100344.34;;;16.33;62.76
8101;BME280;4093;53.470;9.832;2024-03-02T10:49:33;100338.53;;;16.63;61.93
8101;BME280;4093;53.470;9.832;2024-03-02T10:52:02;100334.00;;;16.49;62.27
8101;BME280;4093;53.470;9.832;2024-03-02T10:54:30;100328.00;;;15.73;62.10
8101;BME280;4093;53.470;9.832;2024-03-02T10:57:04;100344.72;;;15.88;62.86
8101;BME280;4093;53.470;9.832;2024-03-02T10:59:37;100323.78;;;16.08;61.86
8101;BME280;4093;53.470;9.832;2024-03-02T11:02:12;100326.78;;;15.61;62.86
8101;BME280;4093;53.470;9.832;2024-03-02T11:04:41;100337.00;;;15.26;63.75
8101;BME280;4093;53.470;9.832;2024-03-02T11:07:11;100354.06;;;15.73;62.51
8101;BME280;4093;53.470;9.832;2024-03-02T11:09:42;100341.88;;;15.34;63.37
8101;BME280;4093;53.470;9.832;2024-03-02T11:12:13;100348.84;;;15.34;64.17
8101;BME280;4093;53.470;9.832;2024-03-02T11:14:44;100380.47;;;16.05;63.31
8101;BME280;4093;53.470;9.832;2024-03-02T11:17:14;100359.00;;;15.98;62.47
8101;BME280;4093;53.470;9.832;2024-03-02T11:19:43;100349.97;;;15.08;64.33
8101;BME280;4093;53.470;9.832;2024-03-02T11:22:13;100364.50;;;15.73;63.36
8101;BME280;4093;53.470;9.832;2024-03-02T11:24:49;100373.25;;;16.10;62.57
8101;BME280;4093;53.470;9.832;2024-03-02T11:30:49;100346.97;;;15.56;62.17
8101;BME280;4093;53.470;9.832;2024-03-02T11:33:25;100368.41;;;15.23;64.58
8101;BME280;4093;53.470;9.832;2024-03-02T11:35:55;100378.63;;;16.07;63.38
8101;BME280;4093;53.470;9.832;2024-03-02T11:38:27;100371.44;;;16.12;62.21
8101;BME280;4093;53.470;9.832;2024-03-02T11:40:56;100362.56;;;15.58;62.52
8101;BME280;4093;53.470;9.832;2024-03-02T11:43:25;100381.31;;;16.24;61.83
8101;BME280;4093;53.470;9.832;2024-03-02T11:45:57;100370.19;;;16.38;61.44
8101;BME280;4093;53.470;9.832;2024-03-02T11:48:26;100371.75;;;15.85;62.10
8101;BME280;4093;53.470;9.832;2024-03-02T11:50:57;100369.09;;;16.06;61.97
8101;BME280;4093;53.470;9.832;2024-03-02T11:53:27;100366.31;;;16.47;61.44
8101;BME280;4093;53.470;9.832;2024-03-02T11:55:59;100349.06;;;16.06;61.91
8101;BME280;4093;53.470;9.832;2024-03-02T11:58:28;100366.75;;;16.37;61.99
8101;BME280;4093;53.470;9.832;2024-03-02T12:00:56;100357.66;;;16.27;61.84
8101;BME280;4093;53.470;9.832;2024-03-02T12:03:25;100367.72;;;16.35;61.74
8101;BME280;4093;53.470;9.832;2024-03-02T12:05:54;100361.97;;;16.28;62.63
8101;BME280;4093;53.470;9.832;2024-03-02T12:08:22;100350.00;;;15.86;62.78
8101;BME280;4093;53.470;9.832;2024-03-02T12:10:58;100358.91;;;15.41;63.15
8101;BME280;4093;53.470;9.832;2024-03-02T12:13:28;100375.38;;;16.02;62.86
8101;BME280;4093;53.470;9.832;2024-03-02T12:15:56;100368.59;;;15.98;61.90
8101;BME280;4093;53.470;9.832;2024-03-02T12:18:24;100359.16;;;15.95;61.88
8101;BME280;4093;53.470;9.832;2024-03-02T12:20:53;100345.63;;;15.87;62.44
8101;BME280;4093;53.470;9.832;2024-03-02T12:23:25;100345.13;;;16.16;61.86
8101;BME280;4093;53.470;9.832;2024-03-02T12:25:53;100343.63;;;15.73;63.09
8101;BME280;4093;53.470;9.832;2024-03-02T12:28:22;100344.22;;;15.99;62.13
8101;BME280;4093;53.470;9.832;2024-03-02T12:30:50;100344.38;;;15.95;62.77
8101;BME280;4093;53.470;9.832;2024-03-02T12:33:19;100356.25;;;16.39;62.10
8101;BME280;4093;53.470;9.832;2024-03-02T12:35:49;100337.81;;;15.87;63.39
8101;BME280;4093;53.470;9.832;2024-03-02T12:38:16;100342.41;;;15.61;63.28
8101;BME280;4093;53.470;9.832;2024-03-02T12:40:44;100289.69;;;14.55;64.88
8101;BME280;4093;53.470;9.832;2024-03-02T12:43:12;100352.16;;;15.37;64.30
8101;BME280;4093;53.470;9.832;2024-03-02T12:45:41;100352.94;;;15.19;65.44
8101;BME280;4093;53.470;9.832;2024-03-02T12:48:09;100359.00;;;15.79;63.49
8101;BME280;4093;53.470;9.832;2024-03-02T12:50:37;100362.91;;;15.89;63.20
8101;BME280;4093;53.470;9.832;2024-03-02T12:53:04;100362.69;;;16.13;62.94
8101;BME280;4093;53.470;9.832;2024-03-02T12:55:32;100356.22;;;16.03;63.30
8101;BME280;4093;53.470;9.832;2024-03-02T12:58:00;100352.94;;;15.98;62.81
8101;BME280;4093;53.470;9.832;2024-03-02T13:00:29;100357.41;;;16.51;62.07
8101;BME280;4093;53.470;9.832;2024-03-02T13:03:03;100345.44;;;16.83;61.77
8101;BME280;4093;53.470;9.832;2024-03-02T13:05:30;100341.88;;;16.30;63.00
8101;BME280;4093;53.470;9.832;2024-03-02T13:07:59;100339.88;;;16.35;62.24
8101;BME280;4093;53.470;9.832;2024-03-02T13:10:27;100328.72;;;15.77;63.63
8101;BME280;4093;53.470;9.832;2024-03-02T13:12:56;100345.00;;;16.01;62.70
8101;BME280;4093;53.470;9.832;2024-03-02T13:15:25;100330.69;;;15.71;63.71
8101;BME280;4093;53.470;9.832;2024-03-02T13:17:53;100327.44;;;16.04;61.95
8101;BME280;4093;53.470;9.832;2024-03-02T13:20:23;100336.06;;;16.42;62.15
8101;BME280;4093;53.470;9.832;2024-03-02T13:22:52;100334.53;;;16.56;61.29